sensor_id;sensor_type;location;lat;lon;timestamp;temperature;humidity
52415;DHT22;38340;52.964;6.086;2023-01-08T00:02:17;9.40;99.90
52415;DHT22;38340;52.964;6.086;2023-01-08T00:04:43;9.50;99.90
52415;DHT22;38340;52.964;6.086;2023-01-08T00:07:09;9.50;99.90
52415;DHT22;38340;52.964;6.086;2023-01-08T00:09:34;9.50;99.90
52415;DHT22;38340;52.964;6.086;2023-01-08T00:12:00;9.50;99.90
52415;DHT22;38340;52.964;6.086;2023-01-08T00:14:26;9.60;99.90
52415;DHT22;38340;52.964;6.086;2023-01-08T00:16:51;9.60;99.90
52415;DHT22;38340;52.964;6.086;2023-01-08T00:19:17;9.50;99.90
52415;DHT22;38340;52.964;6.086;2023-01-08T00:21:43;9.50;99.90
52415;DHT22;38340;52.964;6.086;2023-01-08T00:24:09;9.60;99.90
52415;DHT22;38340;52.964;6.086;2023-01-08T00:26:34;9.50;99.90
52415;DHT22;38340;52.964;6.086;2023-01-08T00:29:00;9.50;99.90
52415;DHT22;38340;52.964;6.086;2023-01-08T00:31:26;9.40;99.90
52415;DHT22;38340;52.964;6.086;2023-01-08T00:33:52;9.40;99.90
52415;DHT22;38340;52.964;6.086;2023-01-08T00:36:18;9.40;99.90
52415;DHT22;38340;52.964;6.086;2023-01-08T00:38:45;9.40;99.90
52415;DHT22;38340;52.964;6.086;2023-01-08T00:41:12;9.40;99.90
52415;DHT22;38340;52.964;6.086;2023-01-08T00:43:38;9.40;99.90
52415;DHT22;38340;52.964;6.086;2023-01-08T00:46:04;9.40;99.90
52415;DHT22;38340;52.964;6.086;2023-01-08T00:48:30;9.40;99.90
52415;DHT22;38340;52.964;6.086;2023-01-08T00:50:55;9.40;99.90
52415;DHT22;38340;52.964;6.086;2023-01-08T00:53:22;9.40;99.90
52415;DHT22;38340;52.964;6.086;2023-01-08T00:55:48;9.40;99.90
52415;DHT22;38340;52.964;6.086;2023-01-08T00:58:14;9.40;99.90
52415;DHT22;38340;52.964;6.086;2023-01-08T01:00:40;9.40;99.90
52415;DHT22;38340;52.964;6.086;2023-01-08T01:03:06;9.40;99.90
52415;DHT22;38340;52.964;6.086;2023-01-08T01:05:31;9.40;99.90
52415;DHT22;38340;52.964;6.086;2023-01-08T01:07:57;9.40;99.90
52415;DHT22;38340;52.964;6.086;2023-01-08T01:10:23;9.30;99.90
52415;DHT22;38340;52.964;6.086;2023-01-08T01:12:49;9.40;99.90
52415;DHT22;38340;52.964;6.086;2023-01-08T01:15:16;9.40;99.90
52415;DHT22;38340;52.964;6.086;2023-01-08T01:17:44;9.40;99.90
52415;DHT22;38340;52.964;6.086;2023-01-08T01:20:12;9.40;99.90
52415;DHT22;38340;52.964;6.086;2023-01-08T01:22:38;9.30;99.90
52415;DHT22;38340;52.964;6.086;2023-01-08T01:25:06;9.40;99.90
52415;DHT22;38340;52.964;6.086;2023-01-08T01:27:32;9.30;99.90
52415;DHT22;38340;52.964;6.086;2023-01-08T01:29:57;9.30;99.90
52415;DHT22;38340;52.964;6.086;2023-01-08T01:32:23;9.10;99.90
52415;DHT22;38340;52.964;6.086;2023-01-08T01:34:49;9.10;99.90
52415;DHT22;38340;52.964;6.086;2023-01-08T01:37:15;9.10;99.90
52415;DHT22;38340;52.964;6.086;2023-01-08T01:39:41;9.00;99.90
52415;DHT22;38340;52.964;6.086;2023-01-08T01:42:15;8.90;99.90
52415;DHT22;38340;52.964;6.086;2023-01-08T01:45:03;8.90;99.90
52415;DHT22;38340;52.964;6.086;2023-01-08T01:47:37;8.90;99.90
52415;DHT22;38340;52.964;6.086;2023-01-08T01:50:12;8.70;99.90
52415;DHT22;38340;52.964;6.086;2023-01-08T01:52:42;8.60;99.90
52415;DHT22;38340;52.964;6.086;2023-01-08T01:55:13;8.70;99.90
52415;DHT22;38340;52.964;6.086;2023-01-08T01:57:42;8.70;99.90
52415;DHT22;38340;52.964;6.086;2023-01-08T02:00:09;8.60;99.90
52415;DHT22;38340;52.964;6.086;2023-01-08T02:02:35;8.60;99.90
52415;DHT22;38340;52.964;6.086;2023-01-08T02:05:01;8.40;99.90
52415;DHT22;38340;52.964;6.086;2023-01-08T02:10:17;8.40;99.90
52415;DHT22;38340;52.964;6.086;2023-01-08T02:12:50;8.30;99.90
52415;DHT22;38340;52.964;6.086;2023-01-08T02:15:23;8.30;99.90
52415;DHT22;38340;52.964;6.086;2023-01-08T02:20:29;8.30;99.90
52415;DHT22;38340;52.964;6.086;2023-01-08T02:28:25;8.20;99.90
52415;DHT22;38340;52.964;6.086;2023-01-08T02:30:51;8.10;99.90
52415;DHT22;38340;52.964;6.086;2023-01-08T02:33:17;8.10;99.90
52415;DHT22;38340;52.964;6.086;2023-01-08T02:38:48;8.00;99.90
52415;DHT22;38340;52.964;6.086;2023-01-08T02:41:18;7.90;99.90
52415;DHT22;38340;52.964;6.086;2023-01-08T02:43:49;8.00;99.90
52415;DHT22;38340;52.964;6.086;2023-01-08T02:46:24;7.90;99.90
52415;DHT22;38340;52.964;6.086;2023-01-08T02:48:55;8.00;99.90
52415;DHT22;38340;52.964;6.086;2023-01-08T02:51:29;7.90;99.90
52415;DHT22;38340;52.964;6.086;2023-01-08T02:54:02;7.90;99.90
52415;DHT22;38340;52.964;6.086;2023-01-08T02:56:38;7.90;99.90
52415;DHT22;38340;52.964;6.086;2023-01-08T02:59:06;7.90;99.90
52415;DHT22;38340;52.964;6.086;2023-01-08T03:01:33;7.80;99.90
52415;DHT22;38340;52.964;6.086;2023-01-08T03:04:02;7.90;99.90
52415;DHT22;38340;52.964;6.086;2023-01-08T03:06:30;7.80;99.90
52415;DHT22;38340;52.964;6.086;2023-01-08T03:08:58;7.80;99.90
52415;DHT22;38340;52.964;6.086;2023-01-08T03:11:28;7.70;99.90
52415;DHT22;38340;52.964;6.086;2023-01-08T03:14:01;7.80;99.90
52415;DHT22;38340;52.964;6.086;2023-01-08T03:16:33;7.60;99.90
52415;DHT22;38340;52.964;6.086;2023-01-08T03:19:25;7.70;99.90
52415;DHT22;38340;52.964;6.086;2023-01-08T03:21:50;7.60;99.90
52415;DHT22;38340;52.964;6.086;2023-01-08T03:24:24;7.60;99.90
52415;DHT22;38340;52.964;6.086;2023-01-08T03:26:54;7.60;99.90
52415;DHT22;38340;52.964;6.086;2023-01-08T03:29:21;7.50;99.90
52415;DHT22;38340;52.964;6.086;2023-01-08T03:31:50;7.60;99.90
52415;DHT22;38340;52.964;6.086;2023-01-08T03:34:19;7.50;99.90
52415;DHT22;38340;52.964;6.086;2023-01-08T03:36:48;7.50;99.90
52415;DHT22;38340;52.964;6.086;2023-01-08T03:39:20;7.40;99.90
52415;DHT22;38340;52.964;6.086;2023-01-08T03:41:48;7.40;99.90
52415;DHT22;38340;52.964;6.086;2023-01-08T03:44:15;7.50;99.90
52415;DHT22;38340;52.964;6.086;2023-01-08T03:46:44;7.40;99.90
52415;DHT22;38340;52.964;6.086;2023-01-08T03:49:12;7.50;99.90
52415;DHT22;38340;52.964;6.086;2023-01-08T03:51:40;7.60;99.90
52415;DHT22;38340;52.964;6.086;2023-01-08T03:54:10;7.60;99.90
52415;DHT22;38340;52.964;6.086;2023-01-08T03:56:37;7.60;99.90
52415;DHT22;38340;52.964;6.086;2023-01-08T03:59:03;7.70;99.90
52415;DHT22;38340;52.964;6.086;2023-01-08T04:01:28;7.70;99.90
52415;DHT22;38340;52.964;6.086;2023-01-08T04:03:54;7.60;99.90
52415;DHT22;38340;52.964;6.086;2023-01-08T04:06:20;7.60;99.90
52415;DHT22;38340;52.964;6.086;2023-01-08T04:08:48;7.70;99.90
52415;DHT22;38340;52.964;6.086;2023-01-08T04:11:15;7.70;99.90
52415;DHT22;38340;52.964;6.086;2023-01-08T04:13:41;7.70;99.90
52415;DHT22;38340;52.964;6.086;2023-01-08T04:16:07;7.80;99.90
52415;DHT22;38340;52.964;6.086;2023-01-08T04:18:33;7.90;99.90
52415;DHT22;38340;52.964;6.086;2023-01-08T04:20:59;7.80;99.90
52415;DHT22;38340;52.964;6.086;2023-01-08T04:23:25;7.70;99.90
52415;DHT22;38340;52.964;6.086;2023-01-08T04:25:51;7.90;99.90
52415;DHT22;38340;52.964;6.086;2023-01-08T04:28:17;7.80;99.90
52415;DHT22;38340;52.964;6.086;2023-01-08T04:30:43;7.90;99.90
52415;DHT22;38340;52.964;6.086;2023-01-08T04:33:09;7.90;99.90
52415;DHT22;38340;52.964;6.086;2023-01-08T04:35:35;7.90;99.90
52415;DHT22;38340;52.964;6.086;2023-01-08T04:38:01;7.90;99.90
52415;DHT22;38340;52.964;6.086;2023-01-08T04:40:27;8.00;99.90
52415;DHT22;38340;52.964;6.086;2023-01-08T04:42:53;8.00;99.90
52415;DHT22;38340;52.964;6.086;2023-01-08T04:45:18;7.90;99.90
52415;DHT22;38340;52.964;6.086;2023-01-08T04:47:44;8.10;99.90
52415;DHT22;38340;52.964;6.086;2023-01-08T04:50:10;7.90;99.90
52415;DHT22;38340;52.964;6.086;2023-01-08T04:52:36;8.00;99.90
52415;DHT22;38340;52.964;6.086;2023-01-08T04:55:02;8.00;99.90
52415;DHT22;38340;52.964;6.086;2023-01-08T04:57:28;7.90;99.90
52415;DHT22;38340;52.964;6.086;2023-01-08T04:59:53;7.90;99.90
52415;DHT22;38340;52.964;6.086;2023-01-08T05:02:19;8.00;99.90
52415;DHT22;38340;52.964;6.086;2023-01-08T05:04:46;8.00;99.90
52415;DHT22;38340;52.964;6.086;2023-01-08T05:07:12;8.10;99.90
52415;DHT22;38340;52.964;6.086;2023-01-08T05:09:38;7.90;99.90
52415;DHT22;38340;52.964;6.086;2023-01-08T05:12:03;8.00;99.90
52415;DHT22;38340;52.964;6.086;2023-01-08T05:14:29;8.00;99.90
52415;DHT22;38340;52.964;6.086;2023-01-08T05:16:55;8.00;99.90
52415;DHT22;38340;52.964;6.086;2023-01-08T05:19:20;8.00;99.90
52415;DHT22;38340;52.964;6.086;2023-01-08T05:21:46;7.90;99.90
52415;DHT22;38340;52.964;6.086;2023-01-08T05:24:12;8.00;99.90
52415;DHT22;38340;52.964;6.086;2023-01-08T05:26:37;7.90;99.90
52415;DHT22;38340;52.964;6.086;2023-01-08T05:29:03;7.90;99.90
52415;DHT22;38340;52.964;6.086;2023-01-08T05:31:29;7.90;99.90
52415;DHT22;38340;52.964;6.086;2023-01-08T05:33:57;7.80;99.90
52415;DHT22;38340;52.964;6.086;2023-01-08T05:36:23;7.90;99.90
52415;DHT22;38340;52.964;6.086;2023-01-08T05:38:49;7.80;99.90
52415;DHT22;38340;52.964;6.086;2023-01-08T05:41:14;7.70;99.90
52415;DHT22;38340;52.964;6.086;2023-01-08T05:43:40;7.80;99.90
52415;DHT22;38340;52.964;6.086;2023-01-08T05:46:06;7.80;99.90
52415;DHT22;38340;52.964;6.086;2023-01-08T05:48:33;7.80;99.90
52415;DHT22;38340;52.964;6.086;2023-01-08T05:50:59;7.80;99.90
52415;DHT22;38340;52.964;6.086;2023-01-08T05:53:25;7.70;99.90
52415;DHT22;38340;52.964;6.086;2023-01-08T05:55:51;7.60;99.90
52415;DHT22;38340;52.964;6.086;2023-01-08T05:58:16;7.70;99.90
52415;DHT22;38340;52.964;6.086;2023-01-08T06:00:44;7.70;99.90
52415;DHT22;38340;52.964;6.086;2023-01-08T06:03:10;7.50;99.90
52415;DHT22;38340;52.964;6.086;2023-01-08T06:05:35;7.50;99.90
52415;DHT22;38340;52.964;6.086;2023-01-08T06:08:01;7.60;99.90
52415;DHT22;38340;52.964;6.086;2023-01-08T06:10:27;7.60;99.90
52415;DHT22;38340;52.964;6.086;2023-01-08T06:12:53;7.70;99.90
52415;DHT22;38340;52.964;6.086;2023-01-08T06:15:19;7.60;99.90
52415;DHT22;38340;52.964;6.086;2023-01-08T06:17:45;7.60;99.90
52415;DHT22;38340;52.964;6.086;2023-01-08T06:20:11;7.50;99.90
52415;DHT22;38340;52.964;6.086;2023-01-08T06:22:36;7.40;99.90
52415;DHT22;38340;52.964;6.086;2023-01-08T06:25:03;7.40;99.90
52415;DHT22;38340;52.964;6.086;2023-01-08T06:27:28;7.40;99.90
52415;DHT22;38340;52.964;6.086;2023-01-08T06:29:54;7.40;99.90
52415;DHT22;38340;52.964;6.086;2023-01-08T06:32:20;7.40;99.90
52415;DHT22;38340;52.964;6.086;2023-01-08T06:34:46;7.40;99.90
52415;DHT22;38340;52.964;6.086;2023-01-08T06:37:11;7.30;99.90
52415;DHT22;38340;52.964;6.086;2023-01-08T06:39:37;7.30;99.90
52415;DHT22;38340;52.964;6.086;2023-01-08T06:42:03;7.30;99.90
52415;DHT22;38340;52.964;6.086;2023-01-08T06:44:29;7.30;99.90
52415;DHT22;38340;52.964;6.086;2023-01-08T06:46:54;7.20;99.90
52415;DHT22;38340;52.964;6.086;2023-01-08T06:49:20;7.00;99.90
52415;DHT22;38340;52.964;6.086;2023-01-08T06:51:47;7.10;99.90
52415;DHT22;38340;52.964;6.086;2023-01-08T06:54:13;7.00;99.90
52415;DHT22;38340;52.964;6.086;2023-01-08T06:56:38;6.90;99.90
52415;DHT22;38340;52.964;6.086;2023-01-08T06:59:04;7.00;99.90
52415;DHT22;38340;52.964;6.086;2023-01-08T07:01:30;7.00;99.90
52415;DHT22;38340;52.964;6.086;2023-01-08T07:03:55;6.90;99.90
52415;DHT22;38340;52.964;6.086;2023-01-08T07:06:21;6.80;99.90
52415;DHT22;38340;52.964;6.086;2023-01-08T07:08:48;6.80;99.90
52415;DHT22;38340;52.964;6.086;2023-01-08T07:11:14;6.90;99.90
52415;DHT22;38340;52.964;6.086;2023-01-08T07:13:40;6.90;99.90
52415;DHT22;38340;52.964;6.086;2023-01-08T07:16:07;6.80;99.90
52415;DHT22;38340;52.964;6.086;2023-01-08T07:18:34;6.80;99.90
52415;DHT22;38340;52.964;6.086;2023-01-08T07:21:01;6.70;99.90
52415;DHT22;38340;52.964;6.086;2023-01-08T07:23:27;6.80;99.90
52415;DHT22;38340;52.964;6.086;2023-01-08T07:25:53;6.70;99.90
52415;DHT22;38340;52.964;6.086;2023-01-08T07:28:19;6.80;99.90
52415;DHT22;38340;52.964;6.086;2023-01-08T07:30:45;6.70;99.90
52415;DHT22;38340;52.964;6.086;2023-01-08T07:33:10;6.60;99.90
52415;DHT22;38340;52.964;6.086;2023-01-08T07:35:36;6.60;99.90
52415;DHT22;38340;52.964;6.086;2023-01-08T07:38:03;6.70;99.90
52415;DHT22;38340;52.964;6.086;2023-01-08T07:40:29;6.60;99.90
52415;DHT22;38340;52.964;6.086;2023-01-08T07:43:01;6.70;99.90
52415;DHT22;38340;52.964;6.086;2023-01-08T07:45:28;6.60;99.90
52415;DHT22;38340;52.964;6.086;2023-01-08T07:47:57;6.70;99.90
52415;DHT22;38340;52.964;6.086;2023-01-08T07:50:23;6.70;99.90
52415;DHT22;38340;52.964;6.086;2023-01-08T07:52:49;6.60;99.90
52415;DHT22;38340;52.964;6.086;2023-01-08T07:55:15;6.60;99.90
52415;DHT22;38340;52.964;6.086;2023-01-08T07:57:40;6.70;99.90
52415;DHT22;38340;52.964;6.086;2023-01-08T08:00:07;6.70;99.90
52415;DHT22;38340;52.964;6.086;2023-01-08T08:02:32;6.60;99.90
52415;DHT22;38340;52.964;6.086;2023-01-08T08:04:58;6.60;99.90
52415;DHT22;38340;52.964;6.086;2023-01-08T08:07:24;6.60;99.90
52415;DHT22;38340;52.964;6.086;2023-01-08T08:09:50;6.60;99.90
52415;DHT22;38340;52.964;6.086;2023-01-08T08:12:15;6.60;99.90
52415;DHT22;38340;52.964;6.086;2023-01-08T08:14:41;6.60;99.90
52415;DHT22;38340;52.964;6.086;2023-01-08T08:17:07;6.50;99.90
52415;DHT22;38340;52.964;6.086;2023-01-08T08:19:32;6.60;99.90
52415;DHT22;38340;52.964;6.086;2023-01-08T08:21:58;6.50;99.90
52415;DHT22;38340;52.964;6.086;2023-01-08T08:24:24;6.50;99.90
52415;DHT22;38340;52.964;6.086;2023-01-08T08:26:50;6.60;99.90
52415;DHT22;38340;52.964;6.086;2023-01-08T08:29:15;6.70;99.90
52415;DHT22;38340;52.964;6.086;2023-01-08T08:31:41;6.60;99.90
52415;DHT22;38340;52.964;6.086;2023-01-08T08:34:07;6.60;99.90
52415;DHT22;38340;52.964;6.086;2023-01-08T08:36:33;6.60;99.90
52415;DHT22;38340;52.964;6.086;2023-01-08T08:38:58;6.50;99.90
52415;DHT22;38340;52.964;6.086;2023-01-08T08:41:26;6.60;99.90
52415;DHT22;38340;52.964;6.086;2023-01-08T08:43:52;6.60;99.90
52415;DHT22;38340;52.964;6.086;2023-01-08T08:46:18;6.50;99.90
52415;DHT22;38340;52.964;6.086;2023-01-08T08:48:44;6.60;99.90
52415;DHT22;38340;52.964;6.086;2023-01-08T08:51:11;6.60;99.90
52415;DHT22;38340;52.964;6.086;2023-01-08T08:53:36;6.50;99.90
52415;DHT22;38340;52.964;6.086;2023-01-08T08:56:02;6.70;99.90
52415;DHT22;38340;52.964;6.086;2023-01-08T08:58:28;6.70;99.90
52415;DHT22;38340;52.964;6.086;2023-01-08T09:00:54;6.80;99.90
52415;DHT22;38340;52.964;6.086;2023-01-08T09:03:19;6.80;99.90
52415;DHT22;38340;52.964;6.086;2023-01-08T09:05:45;6.90;99.90
52415;DHT22;38340;52.964;6.086;2023-01-08T09:08:11;7.00;99.90
52415;DHT22;38340;52.964;6.086;2023-01-08T09:10:38;7.00;99.90
52415;DHT22;38340;52.964;6.086;2023-01-08T09:13:05;7.00;99.90
52415;DHT22;38340;52.964;6.086;2023-01-08T09:15:31;7.00;99.90
52415;DHT22;38340;52.964;6.086;2023-01-08T09:17:57;7.00;99.90
52415;DHT22;38340;52.964;6.086;2023-01-08T09:20:24;7.20;99.90
52415;DHT22;38340;52.964;6.086;2023-01-08T09:22:50;7.20;99.90
52415;DHT22;38340;52.964;6.086;2023-01-08T09:25:16;7.20;99.90
52415;DHT22;38340;52.964;6.086;2023-01-08T09:27:42;7.20;99.90
52415;DHT22;38340;52.964;6.086;2023-01-08T09:30:08;7.20;99.90
52415;DHT22;38340;52.964;6.086;2023-01-08T09:32:34;7.30;99.90
52415;DHT22;38340;52.964;6.086;2023-01-08T09:35:00;7.30;99.90
52415;DHT22;38340;52.964;6.086;2023-01-08T09:37:25;7.30;99.90
52415;DHT22;38340;52.964;6.086;2023-01-08T09:39:51;7.20;99.90
52415;DHT22;38340;52.964;6.086;2023-01-08T09:42:22;7.30;99.90
52415;DHT22;38340;52.964;6.086;2023-01-08T09:44:51;7.40;99.90
52415;DHT22;38340;52.964;6.086;2023-01-08T09:47:26;7.40;99.90
52415;DHT22;38340;52.964;6.086;2023-01-08T09:50:00;7.40;99.90
52415;DHT22;38340;52.964;6.086;2023-01-08T09:52:28;7.40;99.90
52415;DHT22;38340;52.964;6.086;2023-01-08T09:54:54;7.50;99.90
52415;DHT22;38340;52.964;6.086;2023-01-08T09:57:21;7.50;99.90
52415;DHT22;38340;52.964;6.086;2023-01-08T09:59:48;7.50;99.90
52415;DHT22;38340;52.964;6.086;2023-01-08T10:02:23;7.60;99.90
52415;DHT22;38340;52.964;6.086;2023-01-08T10:04:55;7.50;99.90
52415;DHT22;38340;52.964;6.086;2023-01-08T10:07:27;7.60;99.90
52415;DHT22;38340;52.964;6.086;2023-01-08T10:09:54;7.60;99.90
52415;DHT22;38340;52.964;6.086;2023-01-08T10:12:40;7.60;99.90
52415;DHT22;38340;52.964;6.086;2023-01-08T10:15:10;7.70;99.90
52415;DHT22;38340;52.964;6.086;2023-01-08T10:17:40;7.80;99.90
52415;DHT22;38340;52.964;6.086;2023-01-08T10:20:15;7.80;99.90
52415;DHT22;38340;52.964;6.086;2023-01-08T10:22:41;7.80;99.90
52415;DHT22;38340;52.964;6.086;2023-01-08T10:25:13;7.90;99.90
52415;DHT22;38340;52.964;6.086;2023-01-08T10:27:56;7.90;99.90
52415;DHT22;38340;52.964;6.086;2023-01-08T10:30:34;7.90;99.90
52415;DHT22;38340;52.964;6.086;2023-01-08T10:33:08;7.90;99.90
52415;DHT22;38340;52.964;6.086;2023-01-08T10:35:38;8.00;99.90
52415;DHT22;38340;52.964;6.086;2023-01-08T10:38:04;8.00;99.90
52415;DHT22;38340;52.964;6.086;2023-01-08T10:40:44;8.00;99.90
52415;DHT22;38340;52.964;6.086;2023-01-08T10:43:24;8.10;99.90
52415;DHT22;38340;52.964;6.086;2023-01-08T10:45:59;8.10;99.90
52415;DHT22;38340;52.964;6.086;2023-01-08T10:48:38;8.00;99.90
52415;DHT22;38340;52.964;6.086;2023-01-08T10:51:11;8.00;99.90
52415;DHT22;38340;52.964;6.086;2023-01-08T10:53:39;8.00;99.90
52415;DHT22;38340;52.964;6.086;2023-01-08T10:56:06;8.00;99.90
52415;DHT22;38340;52.964;6.086;2023-01-08T10:58:40;8.10;99.90
52415;DHT22;38340;52.964;6.086;2023-01-08T11:01:29;8.10;99.90
52415;DHT22;38340;52.964;6.086;2023-01-08T11:04:04;8.10;99.90
52415;DHT22;38340;52.964;6.086;2023-01-08T11:06:32;8.20;99.90
52415;DHT22;38340;52.964;6.086;2023-01-08T11:09:00;8.10;99.90
52415;DHT22;38340;52.964;6.086;2023-01-08T11:11:44;8.20;99.90
52415;DHT22;38340;52.964;6.086;2023-01-08T11:14:29;8.20;99.90
52415;DHT22;38340;52.964;6.086;2023-01-08T11:16:55;8.30;99.90
52415;DHT22;38340;52.964;6.086;2023-01-08T11:19:30;8.40;99.90
52415;DHT22;38340;52.964;6.086;2023-01-08T11:27:22;8.30;99.90
52415;DHT22;38340;52.964;6.086;2023-01-08T11:29:59;8.30;99.90
52415;DHT22;38340;52.964;6.086;2023-01-08T11:35:03;8.30;99.90
52415;DHT22;38340;52.964;6.086;2023-01-08T11:37:50;8.30;99.90
52415;DHT22;38340;52.964;6.086;2023-01-08T11:40:39;8.30;99.90
52415;DHT22;38340;52.964;6.086;2023-01-08T11:54:40;8.40;99.90
52415;DHT22;38340;52.964;6.086;2023-01-08T12:02:56;8.60;99.90
52415;DHT22;38340;52.964;6.086;2023-01-08T12:05:45;8.60;99.90
52415;DHT22;38340;52.964;6.086;2023-01-08T12:19:34;8.50;99.90
52415;DHT22;38340;52.964;6.086;2023-01-08T12:36:02;8.80;99.90
52415;DHT22;38340;52.964;6.086;2023-01-08T12:38:32;8.80;99.90
52415;DHT22;38340;52.964;6.086;2023-01-08T12:41:09;8.80;99.90
52415;DHT22;38340;52.964;6.086;2023-01-08T12:43:55;8.80;99.90
52415;DHT22;38340;52.964;6.086;2023-01-08T12:46:23;8.80;99.90
52415;DHT22;38340;52.964;6.086;2023-01-08T12:48:52;8.90;99.90
52415;DHT22;38340;52.964;6.086;2023-01-08T12:51:28;8.90;99.90
52415;DHT22;38340;52.964;6.086;2023-01-08T12:59:20;8.80;99.90
52415;DHT22;38340;52.964;6.086;2023-01-08T13:04:20;8.80;99.90
52415;DHT22;38340;52.964;6.086;2023-01-08T13:07:00;8.80;99.90
52415;DHT22;38340;52.964;6.086;2023-01-08T13:09:26;8.80;99.90
52415;DHT22;38340;52.964;6.086;2023-01-08T13:11:55;8.90;99.90
52415;DHT22;38340;52.964;6.086;2023-01-08T13:14:21;8.90;99.90
52415;DHT22;38340;52.964;6.086;2023-01-08T13:17:14;8.90;99.90
52415;DHT22;38340;52.964;6.086;2023-01-08T13:19:42;8.90;99.90
52415;DHT22;38340;52.964;6.086;2023-01-08T13:22:33;8.90;99.90
52415;DHT22;38340;52.964;6.086;2023-01-08T13:27:42;8.80;99.90
52415;DHT22;38340;52.964;6.086;2023-01-08T13:30:39;8.80;99.90
52415;DHT22;38340;52.964;6.086;2023-01-08T13:38:38;9.00;99.90
52415;DHT22;38340;52.964;6.086;2023-01-08T13:41:04;9.00;99.90
52415;DHT22;38340;52.964;6.086;2023-01-08T13:43:38;9.00;99.90
52415;DHT22;38340;52.964;6.086;2023-01-08T13:46:14;9.00;99.90
52415;DHT22;38340;52.964;6.086;2023-01-08T13:49:05;9.00;99.90
52415;DHT22;38340;52.964;6.086;2023-01-08T13:51:37;8.90;99.90
52415;DHT22;38340;52.964;6.086;2023-01-08T13:56:40;8.80;99.90
52415;DHT22;38340;52.964;6.086;2023-01-08T14:01:53;8.80;99.90
52415;DHT22;38340;52.964;6.086;2023-01-08T14:04:21;8.70;99.90
52415;DHT22;38340;52.964;6.086;2023-01-08T14:06:47;8.70;99.90
52415;DHT22;38340;52.964;6.086;2023-01-08T14:09:23;8.70;99.90
52415;DHT22;38340;52.964;6.086;2023-01-08T14:11:52;8.70;99.90
52415;DHT22;38340;52.964;6.086;2023-01-08T14:14:21;8.80;99.90
52415;DHT22;38340;52.964;6.086;2023-01-08T14:16:50;8.70;99.90
52415;DHT22;38340;52.964;6.086;2023-01-08T14:19:24;8.70;99.90
52415;DHT22;38340;52.964;6.086;2023-01-08T14:21:53;8.70;99.90
52415;DHT22;38340;52.964;6.086;2023-01-08T14:24:21;8.70;99.90
52415;DHT22;38340;52.964;6.086;2023-01-08T14:27:21;8.70;99.90
52415;DHT22;38340;52.964;6.086;2023-01-08T14:29:47;8.70;99.90
52415;DHT22;38340;52.964;6.086;2023-01-08T14:32:16;8.70;99.90
52415;DHT22;38340;52.964;6.086;2023-01-08T14:34:44;8.70;99.90
52415;DHT22;38340;52.964;6.086;2023-01-08T14:37:14;8.70;99.90
52415;DHT22;38340;52.964;6.086;2023-01-08T14:39:41;8.70;99.90
52415;DHT22;38340;52.964;6.086;2023-01-08T14:42:20;8.70;99.90
52415;DHT22;38340;52.964;6.086;2023-01-08T14:47:41;8.50;99.90
52415;DHT22;38340;52.964;6.086;2023-01-08T14:50:32;8.40;99.90
52415;DHT22;38340;52.964;6.086;2023-01-08T14:55:31;8.40;99.90
52415;DHT22;38340;52.964;6.086;2023-01-08T14:57:58;8.40;99.90
52415;DHT22;38340;52.964;6.086;2023-01-08T15:00:27;8.40;99.90
52415;DHT22;38340;52.964;6.086;2023-01-08T15:02:53;8.30;99.90
52415;DHT22;38340;52.964;6.086;2023-01-08T15:05:29;8.30;99.90
52415;DHT22;38340;52.964;6.086;2023-01-08T15:07:59;8.20;99.90
52415;DHT22;38340;52.964;6.086;2023-01-08T15:10:36;8.20;99.90
52415;DHT22;38340;52.964;6.086;2023-01-08T15:13:02;8.10;99.90
52415;DHT22;38340;52.964;6.086;2023-01-08T15:15:34;8.00;99.90
52415;DHT22;38340;52.964;6.086;2023-01-08T15:18:04;8.00;99.90
52415;DHT22;38340;52.964;6.086;2023-01-08T15:20:31;7.90;99.90
52415;DHT22;38340;52.964;6.086;2023-01-08T15:22:58;7.90;99.90
52415;DHT22;38340;52.964;6.086;2023-01-08T15:25:26;7.80;99.90
52415;DHT22;38340;52.964;6.086;2023-01-08T15:28:00;7.80;99.90
52415;DHT22;38340;52.964;6.086;2023-01-08T15:30:37;7.80;99.90
52415;DHT22;38340;52.964;6.086;2023-01-08T15:33:23;7.80;99.90
52415;DHT22;38340;52.964;6.086;2023-01-08T15:35:50;7.70;99.90
52415;DHT22;38340;52.964;6.086;2023-01-08T15:38:16;7.60;99.90
52415;DHT22;38340;52.964;6.086;2023-01-08T15:40:45;7.60;99.90
52415;DHT22;38340;52.964;6.086;2023-01-08T15:43:17;7.60;99.90
52415;DHT22;38340;52.964;6.086;2023-01-08T15:45:47;7.60;99.90
52415;DHT22;38340;52.964;6.086;2023-01-08T15:48:13;7.60;99.90
52415;DHT22;38340;52.964;6.086;2023-01-08T15:50:41;7.60;99.90
52415;DHT22;38340;52.964;6.086;2023-01-08T15:53:19;7.60;99.90
52415;DHT22;38340;52.964;6.086;2023-01-08T15:55:48;7.50;99.90
52415;DHT22;38340;52.964;6.086;2023-01-08T15:58:15;7.50;99.90
52415;DHT22;38340;52.964;6.086;2023-01-08T16:00:42;7.50;99.90
52415;DHT22;38340;52.964;6.086;2023-01-08T16:03:11;7.50;99.90
52415;DHT22;38340;52.964;6.086;2023-01-08T16:05:37;7.40;99.90
52415;DHT22;38340;52.964;6.086;2023-01-08T16:08:03;7.40;99.90
52415;DHT22;38340;52.964;6.086;2023-01-08T16:10:29;7.30;99.90
52415;DHT22;38340;52.964;6.086;2023-01-08T16:12:55;7.30;99.90
52415;DHT22;38340;52.964;6.086;2023-01-08T16:15:21;7.20;99.90
52415;DHT22;38340;52.964;6.086;2023-01-08T16:17:47;7.20;99.90
52415;DHT22;38340;52.964;6.086;2023-01-08T16:20:13;7.10;99.90
52415;DHT22;38340;52.964;6.086;2023-01-08T16:22:39;7.00;99.90
52415;DHT22;38340;52.964;6.086;2023-01-08T16:25:05;7.00;99.90
52415;DHT22;38340;52.964;6.086;2023-01-08T16:27:32;6.90;99.90
52415;DHT22;38340;52.964;6.086;2023-01-08T16:29:58;6.90;99.90
52415;DHT22;38340;52.964;6.086;2023-01-08T16:32:23;6.90;99.90
52415;DHT22;38340;52.964;6.086;2023-01-08T16:34:49;6.80;99.90
52415;DHT22;38340;52.964;6.086;2023-01-08T16:37:15;6.80;99.90
52415;DHT22;38340;52.964;6.086;2023-01-08T16:39:40;6.90;99.90
52415;DHT22;38340;52.964;6.086;2023-01-08T16:42:06;6.80;99.90
52415;DHT22;38340;52.964;6.086;2023-01-08T16:44:35;6.80;99.90
52415;DHT22;38340;52.964;6.086;2023-01-08T16:47:00;6.90;99.90
52415;DHT22;38340;52.964;6.086;2023-01-08T16:49:26;6.90;99.90
52415;DHT22;38340;52.964;6.086;2023-01-08T16:51:52;6.90;99.90
52415;DHT22;38340;52.964;6.086;2023-01-08T16:54:18;6.80;99.90
52415;DHT22;38340;52.964;6.086;2023-01-08T16:56:44;6.80;99.90
52415;DHT22;38340;52.964;6.086;2023-01-08T16:59:10;6.80;99.90
52415;DHT22;38340;52.964;6.086;2023-01-08T17:01:36;6.80;99.90
52415;DHT22;38340;52.964;6.086;2023-01-08T17:04:02;6.70;99.90
52415;DHT22;38340;52.964;6.086;2023-01-08T17:06:28;6.80;99.90
52415;DHT22;38340;52.964;6.086;2023-01-08T17:08:56;6.70;99.90
52415;DHT22;38340;52.964;6.086;2023-01-08T17:11:22;6.70;99.90
52415;DHT22;38340;52.964;6.086;2023-01-08T17:13:48;6.70;99.90
52415;DHT22;38340;52.964;6.086;2023-01-08T17:16:16;6.60;99.90
52415;DHT22;38340;52.964;6.086;2023-01-08T17:18:42;6.60;99.90
52415;DHT22;38340;52.964;6.086;2023-01-08T17:21:09;6.60;99.90
52415;DHT22;38340;52.964;6.086;2023-01-08T17:23:36;6.50;99.90
52415;DHT22;38340;52.964;6.086;2023-01-08T17:26:06;6.50;99.90